sensor_id;sensor_type;location;lat;lon;timestamp;pressure;altitude;pressure_sealevel;temperature;humidity
61870;BME280;47810;42.264;23.826;2023-08-01T00:00:46;93510.75;;;20.92;67.63
61870;BME280;47810;42.264;23.826;2023-08-01T00:03:11;93513.59;;;20.99;67.68
61870;BME280;47810;42.264;23.826;2023-08-01T00:05:39;93509.94;;;20.92;69.10
61870;BME280;47810;42.264;23.826;2023-08-01T00:08:10;93506.94;;;20.87;70.95
61870;BME280;47810;42.264;23.826;2023-08-01T00:10:37;93501.53;;;20.95;69.01
61870;BME280;47810;42.264;23.826;2023-08-01T00:13:02;93500.53;;;20.96;68.70
61870;BME280;47810;42.264;23.826;2023-08-01T00:15:28;93500.41;;;20.73;69.07
61870;BME280;47810;42.264;23.826;2023-08-01T00:17:53;93500.28;;;20.58;69.75
61870;BME280;47810;42.264;23.826;2023-08-01T00:20:19;93505.66;;;20.58;71.18
61870;BME280;47810;42.264;23.826;2023-08-01T00:22:44;93501.94;;;20.59;70.41
61870;BME280;47810;42.264;23.826;2023-08-01T00:25:10;93497.41;;;20.60;69.69
61870;BME280;47810;42.264;23.826;2023-08-01T00:27:35;93491.56;;;20.64;69.88
61870;BME280;47810;42.264;23.826;2023-08-01T00:30:01;93487.38;;;20.62;69.67
61870;BME280;47810;42.264;23.826;2023-08-01T00:32:26;93494.56;;;20.53;69.75
61870;BME280;47810;42.264;23.826;2023-08-01T00:34:52;93492.88;;;20.44;68.83
61870;BME280;47810;42.264;23.826;2023-08-01T00:37:18;93484.97;;;20.51;68.63
61870;BME280;47810;42.264;23.826;2023-08-01T00:39:43;93486.50;;;20.37;68.63
61870;BME280;47810;42.264;23.826;2023-08-01T00:42:09;93478.13;;;20.40;69.34
61870;BME280;47810;42.264;23.826;2023-08-01T00:44:34;93484.50;;;20.39;69.04
61870;BME280;47810;42.264;23.826;2023-08-01T00:47:00;93482.16;;;20.36;69.56
61870;BME280;47810;42.264;23.826;2023-08-01T00:49:25;93473.59;;;20.40;71.26
61870;BME280;47810;42.264;23.826;2023-08-01T00:51:51;93473.09;;;20.37;71.49
61870;BME280;47810;42.264;23.826;2023-08-01T00:54:17;93480.81;;;20.23;69.99
61870;BME280;47810;42.264;23.826;2023-08-01T00:56:43;93463.91;;;20.23;70.73
61870;BME280;47810;42.264;23.826;2023-08-01T00:59:10;93462.72;;;20.17;70.25
61870;BME280;47810;42.264;23.826;2023-08-01T01:01:35;93457.72;;;20.22;70.33
61870;BME280;47810;42.264;23.826;2023-08-01T01:04:01;93456.69;;;20.15;69.89
61870;BME280;47810;42.264;23.826;2023-08-01T01:06:28;93454.34;;;20.12;70.99
61870;BME280;47810;42.264;23.826;2023-08-01T01:08:56;93458.53;;;19.98;69.66
61870;BME280;47810;42.264;23.826;2023-08-01T01:11:21;93455.19;;;19.88;71.52
61870;BME280;47810;42.264;23.826;2023-08-01T01:13:47;93452.31;;;20.06;70.38
61870;BME280;47810;42.264;23.826;2023-08-01T01:16:13;93456.34;;;19.94;69.65
61870;BME280;47810;42.264;23.826;2023-08-01T01:18:38;93451.66;;;19.71;69.21
61870;BME280;47810;42.264;23.826;2023-08-01T01:21:04;93446.28;;;19.80;69.09
61870;BME280;47810;42.264;23.826;2023-08-01T01:23:30;93447.13;;;19.88;69.60
61870;BME280;47810;42.264;23.826;2023-08-01T01:25:57;93452.66;;;20.03;67.71
61870;BME280;47810;42.264;23.826;2023-08-01T01:28:23;93442.63;;;20.05;69.12
61870;BME280;47810;42.264;23.826;2023-08-01T01:30:50;93439.25;;;20.03;70.69
61870;BME280;47810;42.264;23.826;2023-08-01T01:33:18;93444.78;;;19.93;72.12
61870;BME280;47810;42.264;23.826;2023-08-01T01:35:44;93450.13;;;19.93;70.99
61870;BME280;47810;42.264;23.826;2023-08-01T01:38:09;93446.13;;;20.06;70.04
61870;BME280;47810;42.264;23.826;2023-08-01T01:40:35;93448.63;;;19.99;69.78
61870;BME280;47810;42.264;23.826;2023-08-01T01:43:00;93452.31;;;19.82;69.79
61870;BME280;47810;42.264;23.826;2023-08-01T01:45:26;93444.63;;;19.78;71.05
61870;BME280;47810;42.264;23.826;2023-08-01T01:47:52;93439.06;;;19.80;70.15
61870;BME280;47810;42.264;23.826;2023-08-01T01:50:17;93432.88;;;19.80;73.14
61870;BME280;47810;42.264;23.826;2023-08-01T01:52:44;93441.59;;;19.65;72.75
61870;BME280;47810;42.264;23.826;2023-08-01T01:55:10;93432.22;;;19.69;72.60
61870;BME280;47810;42.264;23.826;2023-08-01T01:57:35;93437.56;;;19.69;71.00
61870;BME280;47810;42.264;23.826;2023-08-01T02:00:03;93442.69;;;19.46;67.58
61870;BME280;47810;42.264;23.826;2023-08-01T02:02:28;93432.78;;;19.30;66.67
61870;BME280;47810;42.264;23.826;2023-08-01T02:04:54;93436.78;;;19.26;66.07
61870;BME280;47810;42.264;23.826;2023-08-01T02:07:20;93440.81;;;19.39;67.83
61870;BME280;47810;42.264;23.826;2023-08-01T02:09:45;93450.78;;;19.12;65.96
61870;BME280;47810;42.264;23.826;2023-08-01T02:12:12;93453.44;;;19.04;67.05
61870;BME280;47810;42.264;23.826;2023-08-01T02:14:40;93449.34;;;19.34;66.68
61870;BME280;47810;42.264;23.826;2023-08-01T02:17:06;93451.84;;;19.36;69.35
61870;BME280;47810;42.264;23.826;2023-08-01T02:19:32;93446.16;;;19.39;70.34
61870;BME280;47810;42.264;23.826;2023-08-01T02:21:57;93457.06;;;19.45;70.37
61870;BME280;47810;42.264;23.826;2023-08-01T02:24:23;93456.22;;;19.37;73.50
61870;BME280;47810;42.264;23.826;2023-08-01T02:26:49;93455.72;;;19.41;71.86
61870;BME280;47810;42.264;23.826;2023-08-01T02:29:15;93458.25;;;19.51;71.32
61870;BME280;47810;42.264;23.826;2023-08-01T02:31:40;93463.22;;;19.29;70.54
61870;BME280;47810;42.264;23.826;2023-08-01T02:34:06;93458.06;;;19.36;70.01
61870;BME280;47810;42.264;23.826;2023-08-01T02:36:32;93456.53;;;19.34;67.86
61870;BME280;47810;42.264;23.826;2023-08-01T02:38:57;93458.38;;;19.33;69.11
61870;BME280;47810;42.264;23.826;2023-08-01T02:41:23;93458.19;;;19.26;67.34
61870;BME280;47810;42.264;23.826;2023-08-01T02:43:48;93454.28;;;19.04;67.10
61870;BME280;47810;42.264;23.826;2023-08-01T02:46:14;93458.34;;;19.17;67.59
61870;BME280;47810;42.264;23.826;2023-08-01T02:48:39;93456.78;;;19.06;69.11
61870;BME280;47810;42.264;23.826;2023-08-01T02:51:05;93461.09;;;18.99;68.37
61870;BME280;47810;42.264;23.826;2023-08-01T02:53:34;93455.13;;;19.13;68.23
61870;BME280;47810;42.264;23.826;2023-08-01T02:56:00;93455.19;;;19.29;69.11
61870;BME280;47810;42.264;23.826;2023-08-01T02:58:25;93448.41;;;19.09;71.71
61870;BME280;47810;42.264;23.826;2023-08-01T03:00:51;93451.09;;;19.09;71.71
61870;BME280;47810;42.264;23.826;2023-08-01T03:03:17;93455.50;;;19.18;72.92
61870;BME280;47810;42.264;23.826;2023-08-01T03:05:42;93446.38;;;19.03;73.26
61870;BME280;47810;42.264;23.826;2023-08-01T03:08:08;93445.50;;;18.86;74.30
61870;BME280;47810;42.264;23.826;2023-08-01T03:10:33;93450.03;;;18.94;74.87
61870;BME280;47810;42.264;23.826;2023-08-01T03:12:59;93436.66;;;18.94;74.34
61870;BME280;47810;42.264;23.826;2023-08-01T03:15:24;93433.31;;;18.92;74.07
61870;BME280;47810;42.264;23.826;2023-08-01T03:17:50;93443.66;;;18.87;74.63
61870;BME280;47810;42.264;23.826;2023-08-01T03:20:15;93445.97;;;18.81;74.82
61870;BME280;47810;42.264;23.826;2023-08-01T03:22:41;93438.31;;;18.87;73.60
61870;BME280;47810;42.264;23.826;2023-08-01T03:25:07;93451.66;;;18.87;74.49
61870;BME280;47810;42.264;23.826;2023-08-01T03:27:33;93442.81;;;18.60;74.97
61870;BME280;47810;42.264;23.826;2023-08-01T03:29:59;93449.50;;;18.56;75.34
61870;BME280;47810;42.264;23.826;2023-08-01T03:32:24;93449.44;;;18.48;75.61
61870;BME280;47810;42.264;23.826;2023-08-01T03:34:50;93456.09;;;18.44;76.04
61870;BME280;47810;42.264;23.826;2023-08-01T03:37:16;93452.78;;;18.50;75.35
61870;BME280;47810;42.264;23.826;2023-08-01T03:39:41;93454.09;;;18.46;75.81
61870;BME280;47810;42.264;23.826;2023-08-01T03:42:07;93459.44;;;18.46;75.66
61870;BME280;47810;42.264;23.826;2023-08-01T03:44:33;93453.53;;;18.60;74.52
61870;BME280;47810;42.264;23.826;2023-08-01T03:46:59;93466.16;;;18.50;75.37
61870;BME280;47810;42.264;23.826;2023-08-01T03:49:24;93466.56;;;18.63;74.91
61870;BME280;47810;42.264;23.826;2023-08-01T03:51:50;93468.13;;;18.48;75.86
61870;BME280;47810;42.264;23.826;2023-08-01T03:54:15;93464.25;;;18.42;76.24
61870;BME280;47810;42.264;23.826;2023-08-01T03:56:41;93472.25;;;18.34;76.07
61870;BME280;47810;42.264;23.826;2023-08-01T03:59:12;93470.13;;;18.46;76.21
61870;BME280;47810;42.264;23.826;2023-08-01T04:01:38;93463.94;;;18.45;75.95
61870;BME280;47810;42.264;23.826;2023-08-01T04:04:03;93465.75;;;18.36;76.21
61870;BME280;47810;42.264;23.826;2023-08-01T04:06:29;93467.41;;;18.37;75.46
61870;BME280;47810;42.264;23.826;2023-08-01T04:08:55;93464.16;;;18.26;75.73
61870;BME280;47810;42.264;23.826;2023-08-01T04:11:22;93470.19;;;18.28;76.31
61870;BME280;47810;42.264;23.826;2023-08-01T04:13:47;93473.56;;;18.30;77.36
61870;BME280;47810;42.264;23.826;2023-08-01T04:16:13;93462.25;;;18.18;76.61
61870;BME280;47810;42.264;23.826;2023-08-01T04:18:38;93459.94;;;18.23;77.11
61870;BME280;47810;42.264;23.826;2023-08-01T04:21:04;93460.72;;;18.33;77.00
61870;BME280;47810;42.264;23.826;2023-08-01T04:23:29;93461.03;;;18.30;75.30
61870;BME280;47810;42.264;23.826;2023-08-01T04:25:55;93466.88;;;18.34;77.10
61870;BME280;47810;42.264;23.826;2023-08-01T04:28:20;93462.78;;;18.48;77.18
61870;BME280;47810;42.264;23.826;2023-08-01T04:30:49;93471.19;;;18.53;76.14
61870;BME280;47810;42.264;23.826;2023-08-01T04:33:15;93464.47;;;18.49;76.82
61870;BME280;47810;42.264;23.826;2023-08-01T04:35:41;93469.19;;;18.55;75.19
61870;BME280;47810;42.264;23.826;2023-08-01T04:38:07;93469.88;;;18.57;75.75
61870;BME280;47810;42.264;23.826;2023-08-01T04:40:35;93470.56;;;18.59;77.17
61870;BME280;47810;42.264;23.826;2023-08-01T04:43:01;93470.56;;;18.59;78.26
61870;BME280;47810;42.264;23.826;2023-08-01T04:45:27;93468.34;;;18.54;78.33
61870;BME280;47810;42.264;23.826;2023-08-01T04:47:52;93471.59;;;18.66;77.32
61870;BME280;47810;42.264;23.826;2023-08-01T04:50:18;93472.66;;;18.73;75.97
61870;BME280;47810;42.264;23.826;2023-08-01T04:52:43;93460.38;;;18.89;76.75
61870;BME280;47810;42.264;23.826;2023-08-01T04:55:09;93467.78;;;18.95;76.30
61870;BME280;47810;42.264;23.826;2023-08-01T04:57:35;93466.13;;;19.02;74.90
61870;BME280;47810;42.264;23.826;2023-08-01T05:00:00;93465.50;;;19.08;73.99
61870;BME280;47810;42.264;23.826;2023-08-01T05:02:26;93473.03;;;19.13;73.52
61870;BME280;47810;42.264;23.826;2023-08-01T05:04:52;93475.88;;;19.11;76.85
61870;BME280;47810;42.264;23.826;2023-08-01T05:07:17;93477.22;;;19.15;76.62
61870;BME280;47810;42.264;23.826;2023-08-01T05:09:43;93471.53;;;19.18;76.42
61870;BME280;47810;42.264;23.826;2023-08-01T05:12:08;93473.63;;;19.33;75.05
61870;BME280;47810;42.264;23.826;2023-08-01T05:14:34;93471.31;;;19.46;73.54
61870;BME280;47810;42.264;23.826;2023-08-01T05:17:00;93470.66;;;19.60;73.45
61870;BME280;47810;42.264;23.826;2023-08-01T05:19:25;93474.25;;;19.69;73.05
61870;BME280;47810;42.264;23.826;2023-08-01T05:21:51;93473.41;;;19.76;73.64
61870;BME280;47810;42.264;23.826;2023-08-01T05:24:17;93483.81;;;19.88;73.26
61870;BME280;47810;42.264;23.826;2023-08-01T05:26:42;93479.63;;;19.93;72.40
61870;BME280;47810;42.264;23.826;2023-08-01T05:29:08;93478.81;;;20.01;72.56
61870;BME280;47810;42.264;23.826;2023-08-01T05:31:33;93483.50;;;19.91;70.71
61870;BME280;47810;42.264;23.826;2023-08-01T05:33:59;93480.97;;;19.97;72.96
61870;BME280;47810;42.264;23.826;2023-08-01T05:36:24;93479.44;;;19.87;73.09
61870;BME280;47810;42.264;23.826;2023-08-01T05:38:50;93486.81;;;19.85;72.29
61870;BME280;47810;42.264;23.826;2023-08-01T05:41:16;93492.84;;;19.87;72.48
61870;BME280;47810;42.264;23.826;2023-08-01T05:43:41;93478.47;;;19.88;71.79
61870;BME280;47810;42.264;23.826;2023-08-01T05:46:07;93482.44;;;19.84;71.82
61870;BME280;47810;42.264;23.826;2023-08-01T05:48:32;93477.13;;;19.92;71.70
61870;BME280;47810;42.264;23.826;2023-08-01T05:50:58;93492.34;;;19.99;71.85
61870;BME280;47810;42.264;23.826;2023-08-01T05:53:24;93490.66;;;19.82;71.92
61870;BME280;47810;42.264;23.826;2023-08-01T05:55:49;93479.47;;;19.95;72.19
61870;BME280;47810;42.264;23.826;2023-08-01T05:58:15;93475.13;;;19.94;71.75
61870;BME280;47810;42.264;23.826;2023-08-01T06:00:41;93480.28;;;19.95;70.92
61870;BME280;47810;42.264;23.826;2023-08-01T06:03:06;93473.75;;;20.06;70.78
61870;BME280;47810;42.264;23.826;2023-08-01T06:05:32;93478.78;;;20.09;69.68
61870;BME280;47810;42.264;23.826;2023-08-01T06:07:58;93478.13;;;20.07;69.99
61870;BME280;47810;42.264;23.826;2023-08-01T06:10:24;93467.91;;;20.27;70.50
61870;BME280;47810;42.264;23.826;2023-08-01T06:12:49;93468.41;;;20.39;68.56
61870;BME280;47810;42.264;23.826;2023-08-01T06:15:15;93467.75;;;20.20;68.80
61870;BME280;47810;42.264;23.826;2023-08-01T06:17:41;93463.03;;;20.47;70.35
61870;BME280;47810;42.264;23.826;2023-08-01T06:20:06;93467.22;;;20.50;68.07
61870;BME280;47810;42.264;23.826;2023-08-01T06:22:32;93465.72;;;20.63;68.46
61870;BME280;47810;42.264;23.826;2023-08-01T06:24:57;93463.72;;;20.65;67.72
61870;BME280;47810;42.264;23.826;2023-08-01T06:27:23;93463.22;;;20.54;66.13
61870;BME280;47810;42.264;23.826;2023-08-01T06:44:41;93463.88;;;21.20;64.75
61870;BME280;47810;42.264;23.826;2023-08-01T06:47:07;93461.34;;;21.18;64.21
61870;BME280;47810;42.264;23.826;2023-08-01T06:49:32;93464.16;;;21.33;63.07
61870;BME280;47810;42.264;23.826;2023-08-01T06:51:58;93462.81;;;21.37;64.46
61870;BME280;47810;42.264;23.826;2023-08-01T06:54:24;93462.38;;;21.56;62.94
61870;BME280;47810;42.264;23.826;2023-08-01T06:56:49;93465.69;;;21.67;63.30
61870;BME280;47810;42.264;23.826;2023-08-01T06:59:15;93464.66;;;21.45;62.29
61870;BME280;47810;42.264;23.826;2023-08-01T07:01:41;93465.22;;;21.86;63.47
61870;BME280;47810;42.264;23.826;2023-08-01T07:04:09;93466.31;;;21.77;62.24
61870;BME280;47810;42.264;23.826;2023-08-01T07:06:34;93464.59;;;21.84;62.17
61870;BME280;47810;42.264;23.826;2023-08-01T07:09:00;93471.59;;;21.93;60.67
61870;BME280;47810;42.264;23.826;2023-08-01T07:11:25;93457.72;;;22.04;61.77
61870;BME280;47810;42.264;23.826;2023-08-01T07:13:51;93467.91;;;22.17;61.54
61870;BME280;47810;42.264;23.826;2023-08-01T07:16:16;93457.38;;;22.30;62.15
61870;BME280;47810;42.264;23.826;2023-08-01T07:18:42;93462.44;;;22.48;61.93
61870;BME280;47810;42.264;23.826;2023-08-01T07:21:07;93458.03;;;22.70;62.23
61870;BME280;47810;42.264;23.826;2023-08-01T07:26:43;93451.72;;;22.78;58.39
61870;BME280;47810;42.264;23.826;2023-08-01T07:29:09;93446.28;;;23.16;59.69
61870;BME280;47810;42.264;23.826;2023-08-01T07:31:36;93450.84;;;23.15;56.95
61870;BME280;47810;42.264;23.826;2023-08-01T07:34:02;93444.81;;;23.28;57.73
61870;BME280;47810;42.264;23.826;2023-08-01T07:36:27;93451.09;;;23.50;57.32
61870;BME280;47810;42.264;23.826;2023-08-01T07:38:53;93445.59;;;23.73;56.88
61870;BME280;47810;42.264;23.826;2023-08-01T07:41:19;93445.66;;;24.01;57.31
61870;BME280;47810;42.264;23.826;2023-08-01T07:43:45;93441.63;;;24.12;54.69
61870;BME280;47810;42.264;23.826;2023-08-01T07:46:10;93438.16;;;24.18;55.68
61870;BME280;47810;42.264;23.826;2023-08-01T07:48:37;93441.00;;;24.31;54.47
61870;BME280;47810;42.264;23.826;2023-08-01T07:51:03;93434.81;;;24.37;55.36
61870;BME280;47810;42.264;23.826;2023-08-01T07:53:38;93439.69;;;24.70;57.69
61870;BME280;47810;42.264;23.826;2023-08-01T07:56:03;93442.13;;;24.65;51.37
61870;BME280;47810;42.264;23.826;2023-08-01T07:58:47;93436.84;;;24.78;51.30
61870;BME280;47810;42.264;23.826;2023-08-01T08:01:13;93426.56;;;24.95;49.68
61870;BME280;47810;42.264;23.826;2023-08-01T08:03:38;93436.88;;;25.13;48.94
61870;BME280;47810;42.264;23.826;2023-08-01T08:06:06;93434.63;;;24.89;51.44
61870;BME280;47810;42.264;23.826;2023-08-01T08:08:32;93434.94;;;25.07;51.52
61870;BME280;47810;42.264;23.826;2023-08-01T08:11:01;93436.78;;;25.35;49.38
61870;BME280;47810;42.264;23.826;2023-08-01T08:13:27;93433.53;;;25.46;49.68
61870;BME280;47810;42.264;23.826;2023-08-01T08:15:55;93435.53;;;25.30;49.78
61870;BME280;47810;42.264;23.826;2023-08-01T08:18:21;93428.53;;;25.43;50.69
61870;BME280;47810;42.264;23.826;2023-08-01T08:20:46;93427.88;;;25.89;49.64
61870;BME280;47810;42.264;23.826;2023-08-01T08:23:12;93419.81;;;26.22;48.22
61870;BME280;47810;42.264;23.826;2023-08-01T08:25:41;93420.50;;;26.57;46.02
61870;BME280;47810;42.264;23.826;2023-08-01T08:28:06;93413.41;;;26.69;47.80
61870;BME280;47810;42.264;23.826;2023-08-01T08:30:32;93414.88;;;26.79;48.64
61870;BME280;47810;42.264;23.826;2023-08-01T08:32:58;93405.28;;;26.83;46.41
61870;BME280;47810;42.264;23.826;2023-08-01T08:35:25;93398.81;;;26.97;46.09
61870;BME280;47810;42.264;23.826;2023-08-01T08:37:51;93405.44;;;27.28;46.78
61870;BME280;47810;42.264;23.826;2023-08-01T08:40:16;93398.50;;;27.45;45.72
61870;BME280;47810;42.264;23.826;2023-08-01T08:42:42;93399.47;;;27.57;45.84
61870;BME280;47810;42.264;23.826;2023-08-01T08:45:08;93392.16;;;27.64;44.38
61870;BME280;47810;42.264;23.826;2023-08-01T08:47:35;93398.25;;;27.53;44.15
61870;BME280;47810;42.264;23.826;2023-08-01T08:50:01;93387.44;;;27.40;50.80
61870;BME280;47810;42.264;23.826;2023-08-01T08:52:27;93391.78;;;27.48;47.04
61870;BME280;47810;42.264;23.826;2023-08-01T08:54:52;93389.34;;;27.91;48.23
61870;BME280;47810;42.264;23.826;2023-08-01T08:57:18;93387.41;;;28.30;44.83
61870;BME280;47810;42.264;23.826;2023-08-01T08:59:44;93387.13;;;28.45;43.02
61870;BME280;47810;42.264;23.826;2023-08-01T09:02:11;93389.69;;;28.65;41.79
61870;BME280;47810;42.264;23.826;2023-08-01T09:04:37;93383.47;;;28.58;40.09
61870;BME280;47810;42.264;23.826;2023-08-01T09:07:02;93386.97;;;28.33;40.41
61870;BME280;47810;42.264;23.826;2023-08-01T09:09:31;93383.53;;;28.51;42.02
61870;BME280;47810;42.264;23.826;2023-08-01T09:12:01;93377.03;;;28.77;43.57
61870;BME280;47810;42.264;23.826;2023-08-01T09:14:26;93379.25;;;29.12;42.60
61870;BME280;47810;42.264;23.826;2023-08-01T09:17:05;93380.59;;;29.21;43.26
61870;BME280;47810;42.264;23.826;2023-08-01T09:19:31;93376.81;;;29.40;43.63
61870;BME280;47810;42.264;23.826;2023-08-01T09:21:56;93380.53;;;29.64;41.41
61870;BME280;47810;42.264;23.826;2023-08-01T09:24:22;93371.09;;;29.97;43.13
61870;BME280;47810;42.264;23.826;2023-08-01T09:26:48;93367.31;;;29.98;37.49
61870;BME280;47810;42.264;23.826;2023-08-01T09:29:15;93368.38;;;29.97;40.38
61870;BME280;47810;42.264;23.826;2023-08-01T09:31:41;93364.50;;;30.05;38.84
61870;BME280;47810;42.264;23.826;2023-08-01T09:36:45;93364.25;;;30.36;41.86
61870;BME280;47810;42.264;23.826;2023-08-01T09:39:15;93360.22;;;30.27;38.00
61870;BME280;47810;42.264;23.826;2023-08-01T09:41:41;93360.56;;;30.84;38.25
61870;BME280;47810;42.264;23.826;2023-08-01T09:44:09;93354.28;;;30.84;36.86
61870;BME280;47810;42.264;23.826;2023-08-01T09:46:35;93355.31;;;30.71;36.24
61870;BME280;47810;42.264;23.826;2023-08-01T09:49:08;93353.31;;;30.67;38.21
61870;BME280;47810;42.264;23.826;2023-08-01T09:51:45;93351.22;;;30.92;39.86
61870;BME280;47810;42.264;23.826;2023-08-01T09:54:11;93348.22;;;31.41;36.69
61870;BME280;47810;42.264;23.826;2023-08-01T09:56:37;93342.66;;;31.12;35.07
61870;BME280;47810;42.264;23.826;2023-08-01T09:59:03;93339.97;;;31.64;39.25
61870;BME280;47810;42.264;23.826;2023-08-01T10:01:29;93331.94;;;31.58;37.51
61870;BME280;47810;42.264;23.826;2023-08-01T10:03:57;93333.19;;;31.78;34.99
61870;BME280;47810;42.264;23.826;2023-08-01T10:06:24;93326.97;;;31.95;36.58
61870;BME280;47810;42.264;23.826;2023-08-01T10:08:53;93324.09;;;32.18;34.56
61870;BME280;47810;42.264;23.826;2023-08-01T10:11:22;93322.78;;;31.52;35.98
61870;BME280;47810;42.264;23.826;2023-08-01T10:13:49;93327.38;;;30.99;37.32
61870;BME280;47810;42.264;23.826;2023-08-01T10:16:15;93315.00;;;31.44;35.29
61870;BME280;47810;42.264;23.826;2023-08-01T10:18:42;93309.09;;;31.75;35.47
61870;BME280;47810;42.264;23.826;2023-08-01T10:21:11;93307.66;;;31.44;35.05
61870;BME280;47810;42.264;23.826;2023-08-01T10:23:38;93303.50;;;31.42;34.72
61870;BME280;47810;42.264;23.826;2023-08-01T10:26:05;93303.03;;;31.73;40.14
61870;BME280;47810;42.264;23.826;2023-08-01T10:28:33;93292.06;;;32.14;34.48
61870;BME280;47810;42.264;23.826;2023-08-01T10:33:51;93304.69;;;32.82;33.67
61870;BME280;47810;42.264;23.826;2023-08-01T10:36:18;93293.44;;;32.45;33.82
61870;BME280;47810;42.264;23.826;2023-08-01T10:38:47;93290.44;;;32.63;33.38
61870;BME280;47810;42.264;23.826;2023-08-01T10:43:50;93282.38;;;33.07;31.81
61870;BME280;47810;42.264;23.826;2023-08-01T10:46:16;93272.16;;;33.20;33.50
61870;BME280;47810;42.264;23.826;2023-08-01T10:48:51;93274.34;;;33.23;32.37
61870;BME280;47810;42.264;23.826;2023-08-01T10:51:17;93273.09;;;33.30;32.26
61870;BME280;47810;42.264;23.826;2023-08-01T10:53:44;93264.13;;;32.57;35.02
61870;BME280;47810;42.264;23.826;2023-08-01T10:56:16;93266.13;;;32.84;34.90
61870;BME280;47810;42.264;23.826;2023-08-01T10:58:42;93268.59;;;33.41;34.79
61870;BME280;47810;42.264;23.826;2023-08-01T11:01:08;93265.25;;;33.83;33.21
61870;BME280;47810;42.264;23.826;2023-08-01T11:03:35;93259.25;;;33.86;34.33
61870;BME280;47810;42.264;23.826;2023-08-01T11:06:00;93262.41;;;33.73;33.29
61870;BME280;47810;42.264;23.826;2023-08-01T11:08:39;93257.50;;;33.75;39.61
61870;BME280;47810;42.264;23.826;2023-08-01T11:11:06;93251.75;;;33.49;34.09
61870;BME280;47810;42.264;23.826;2023-08-01T11:13:32;93250.94;;;33.32;33.08
61870;BME280;47810;42.264;23.826;2023-08-01T11:16:01;93244.25;;;32.84;31.87
61870;BME280;47810;42.264;23.826;2023-08-01T11:18:26;93249.09;;;32.77;33.81
61870;BME280;47810;42.264;23.826;2023-08-01T11:20:52;93240.88;;;32.77;31.68
61870;BME280;47810;42.264;23.826;2023-08-01T11:23:17;93237.94;;;32.11;34.92
61870;BME280;47810;42.264;23.826;2023-08-01T11:25:45;93240.84;;;31.75;32.45
61870;BME280;47810;42.264;23.826;2023-08-01T11:28:16;93237.06;;;31.36;33.40
61870;BME280;47810;42.264;23.826;2023-08-01T11:30:42;93241.31;;;31.72;33.29
61870;BME280;47810;42.264;23.826;2023-08-01T11:33:21;93229.53;;;31.15;34.53
61870;BME280;47810;42.264;23.826;2023-08-01T11:35:56;93246.53;;;30.58;35.38
61870;BME280;47810;42.264;23.826;2023-08-01T11:38:23;93231.88;;;29.82;36.63
61870;BME280;47810;42.264;23.826;2023-08-01T11:40:50;93224.63;;;29.64;40.02
61870;BME280;47810;42.264;23.826;2023-08-01T11:43:16;93229.94;;;29.40;37.75
61870;BME280;47810;42.264;23.826;2023-08-01T11:45:49;93230.91;;;30.30;40.80
61870;BME280;47810;42.264;23.826;2023-08-01T11:48:15;93229.09;;;30.94;37.71
61870;BME280;47810;42.264;23.826;2023-08-01T11:50:41;93219.13;;;31.12;36.66
61870;BME280;47810;42.264;23.826;2023-08-01T11:53:17;93223.56;;;30.77;36.67
61870;BME280;47810;42.264;23.826;2023-08-01T11:55:42;93220.13;;;30.47;37.54
61870;BME280;47810;42.264;23.826;2023-08-01T11:58:08;93227.94;;;30.67;38.01
61870;BME280;47810;42.264;23.826;2023-08-01T12:00:33;93227.34;;;30.41;35.37
61870;BME280;47810;42.264;23.826;2023-08-01T12:03:04;93220.69;;;30.72;37.41
61870;BME280;47810;42.264;23.826;2023-08-01T12:05:30;93219.50;;;30.68;35.83
61870;BME280;47810;42.264;23.826;2023-08-01T12:07:56;93215.91;;;29.97;38.06
61870;BME280;47810;42.264;23.826;2023-08-01T12:10:22;93218.75;;;29.90;37.27
61870;BME280;47810;42.264;23.826;2023-08-01T12:12:48;93212.66;;;30.30;38.06
61870;BME280;47810;42.264;23.826;2023-08-01T12:15:14;93220.59;;;30.32;37.85
61870;BME280;47810;42.264;23.826;2023-08-01T12:17:40;93218.84;;;30.37;37.28
61870;BME280;47810;42.264;23.826;2023-08-01T12:20:07;93214.19;;;30.14;41.27
61870;BME280;47810;42.264;23.826;2023-08-01T12:22:33;93200.66;;;29.96;43.06
61870;BME280;47810;42.264;23.826;2023-08-01T12:24:58;93207.88;;;30.14;40.08
61870;BME280;47810;42.264;23.826;2023-08-01T12:27:24;93213.78;;;30.11;39.03
61870;BME280;47810;42.264;23.826;2023-08-01T12:29:49;93205.38;;;30.01;37.20
61870;BME280;47810;42.264;23.826;2023-08-01T12:32:15;93201.97;;;30.17;37.17
61870;BME280;47810;42.264;23.826;2023-08-01T12:34:40;93198.19;;;30.18;40.85
61870;BME280;47810;42.264;23.826;2023-08-01T12:37:06;93202.66;;;30.01;37.30
61870;BME280;47810;42.264;23.826;2023-08-01T12:39:31;93199.84;;;29.96;41.29
61870;BME280;47810;42.264;23.826;2023-08-01T12:41:57;93195.84;;;30.33;39.96
61870;BME280;47810;42.264;23.826;2023-08-01T12:44:23;93193.84;;;30.29;37.06
61870;BME280;47810;42.264;23.826;2023-08-01T12:46:48;93187.16;;;30.01;37.29
61870;BME280;47810;42.264;23.826;2023-08-01T12:49:14;93183.78;;;30.29;37.26
61870;BME280;47810;42.264;23.826;2023-08-01T12:51:40;93178.28;;;30.53;37.79
61870;BME280;47810;42.264;23.826;2023-08-01T12:54:05;93177.06;;;30.72;37.09
61870;BME280;47810;42.264;23.826;2023-08-01T12:56:31;93173.53;;;30.83;35.55
61870;BME280;47810;42.264;23.826;2023-08-01T12:58:57;93169.72;;;30.96;36.83
61870;BME280;47810;42.264;23.826;2023-08-01T13:21:59;93132.75;;;31.17;35.63
61870;BME280;47810;42.264;23.826;2023-08-01T13:24:24;93134.25;;;31.37;40.73
61870;BME280;47810;42.264;23.826;2023-08-01T13:26:50;93133.16;;;31.38;34.68
61870;BME280;47810;42.264;23.826;2023-08-01T13:29:15;93134.72;;;31.34;34.31
61870;BME280;47810;42.264;23.826;2023-08-01T13:31:41;93129.78;;;31.64;34.75